Time;durP1;ratioP1;P1;durP2;ratioP2;P2;SDS_P1;SDS_P2;PMS_P1;PMS_P2;Temp;Humidity;BMP_temperature;BMP_pressure;BME280_temperature;BME280_humidity;BME280_pressure;Samples;Min_cycle;Max_cycle;Signal;HPM_P1;HPM_P2
2024/03/19 05:02:06;;;;;;;1.40;1.30;;;0.20;97.30;;;;;;5318128;23;20591;-85
2024/03/19 05:04:32;;;;;;;4.73;3.07;;;0.20;97.30;;;;;;4981034;28;20464;-87
2024/03/19 05:06:58;;;;;;;1.80;1.70;;;0.10;97.30;;;;;;4979102;28;20236;-84
2024/03/19 05:09:23;;;;;;;2.50;2.30;;;0.10;97.30;;;;;;4985800;28;20429;-85
2024/03/19 05:11:49;;;;;;;1.40;1.30;;;0.10;97.30;;;;;;4978988;28;20275;-84
2024/03/19 05:14:16;;;;;;;1.50;1.40;;;0.10;97.30;;;;;;4960378;28;20179;-84
2024/03/19 05:16:41;;;;;;;1.93;1.83;;;0.00;97.30;;;;;;4959999;28;20422;-86
2024/03/19 05:19:07;;;;;;;1.60;1.50;;;0.00;97.30;;;;;;4959323;28;20827;-86
2024/03/19 05:21:32;;;;;;;1.40;1.30;;;0.00;97.30;;;;;;4961315;28;20199;-85
2024/03/19 05:23:58;;;;;;;2.93;2.73;;;0.00;97.30;;;;;;4961615;28;20659;-82
2024/03/19 05:26:23;;;;;;;1.70;1.60;;;0.00;97.30;;;;;;4963878;28;20452;-81
2024/03/19 05:28:49;;;;;;;1.60;1.50;;;0.00;97.30;;;;;;4961857;28;20604;-88
2024/03/19 05:31:23;;;;;;;4.10;1.30;;;0.00;97.30;;;;;;4945589;28;20696;-86
2024/03/19 05:33:53;;;;;;;1.27;1.17;;;0.00;97.30;;;;;;4947212;28;20194;-89
2024/03/19 05:36:18;;;;;;;2.60;2.40;;;0.00;97.30;;;;;;4947310;28;20432;-86
2024/03/19 05:38:44;;;;;;;4.00;2.13;;;0.00;97.30;;;;;;4947535;28;20522;-88
2024/03/19 05:41:12;;;;;;;1.70;1.60;;;0.00;97.30;;;;;;4961612;28;20224;-85
2024/03/19 05:43:37;;;;;;;1.83;1.73;;;0.00;97.30;;;;;;4954133;28;20213;-86
2024/03/19 05:46:03;;;;;;;3.50;2.40;;;0.00;97.30;;;;;;4959625;28;20422;-86
2024/03/19 05:48:29;;;;;;;1.30;1.20;;;0.00;97.30;;;;;;4947489;28;20200;-85
2024/03/19 05:50:55;;;;;;;1.43;1.33;;;0.00;97.30;;;;;;4961121;28;20210;-85
2024/03/19 05:53:21;;;;;;;1.43;1.33;;;0.00;97.30;;;;;;4954663;28;20449;-84
2024/03/19 05:55:46;;;;;;;1.30;1.20;;;0.00;97.30;;;;;;4959624;28;20834;-85
2024/03/19 05:58:12;;;;;;;2.47;2.00;;;0.00;97.30;;;;;;4960725;28;20426;-87
2024/03/19 06:00:39;;;;;;;2.50;2.00;;;0.00;97.30;;;;;;4959427;28;21043;-85
2024/03/19 06:03:04;;;;;;;1.90;1.80;;;0.00;97.30;;;;;;4961231;28;20305;-85
2024/03/19 06:05:31;;;;;;;1.47;1.37;;;0.10;97.30;;;;;;4961494;28;20482;-85
2024/03/19 06:07:56;;;;;;;5.00;2.83;;;0.10;97.30;;;;;;4952535;28;20391;-87
2024/03/19 06:10:22;;;;;;;3.43;2.10;;;0.10;97.30;;;;;;4953956;28;20457;-85
2024/03/19 06:12:47;;;;;;;2.03;1.90;;;0.20;97.30;;;;;;4959780;28;20186;-85
2024/03/19 06:15:13;;;;;;;2.27;2.07;;;0.20;97.30;;;;;;4959914;28;20179;-87
2024/03/19 06:17:38;;;;;;;1.90;1.80;;;0.20;97.30;;;;;;4960371;28;20696;-85
2024/03/19 06:20:08;;;;;;;1.40;1.30;;;0.30;97.30;;;;;;4959664;28;20245;-88
2024/03/19 06:22:39;;;;;;;2.57;1.77;;;0.30;97.30;;;;;;4959532;28;20228;-88
2024/03/19 06:25:05;;;;;;;1.30;1.30;;;0.40;97.30;;;;;;4952363;28;20630;-84
2024/03/19 06:27:31;;;;;;;1.73;1.63;;;0.40;97.30;;;;;;4955249;28;20274;-86
2024/03/19 06:29:56;;;;;;;2.70;2.50;;;0.50;97.30;;;;;;4968148;28;20475;-85
2024/03/19 06:32:22;;;;;;;2.20;1.87;;;0.60;97.30;;;;;;4968313;28;20615;-86
2024/03/19 06:34:48;;;;;;;1.90;1.80;;;0.70;97.30;;;;;;4957830;28;20238;-85
2024/03/19 06:37:13;;;;;;;1.50;1.40;;;0.70;97.30;;;;;;4957772;28;20244;-83
2024/03/19 06:39:39;;;;;;;1.83;1.73;;;0.80;97.30;;;;;;4958002;28;20293;-84
2024/03/19 06:42:05;;;;;;;2.33;2.20;;;0.90;97.30;;;;;;4957089;28;20762;-86
2024/03/19 06:44:31;;;;;;;1.70;1.57;;;1.00;97.30;;;;;;4957663;28;20225;-87
2024/03/19 06:46:56;;;;;;;1.70;1.57;;;1.10;97.30;;;;;;4958471;28;20452;-85
2024/03/19 06:49:24;;;;;;;3.63;2.50;;;1.20;97.30;;;;;;4957929;28;20221;-86
2024/03/19 06:51:50;;;;;;;1.67;1.57;;;1.40;97.30;;;;;;4975279;28;20206;-85
2024/03/19 06:54:15;;;;;;;1.87;1.77;;;1.50;97.30;;;;;;4957766;28;20442;-85
2024/03/19 06:56:41;;;;;;;3.57;1.63;;;1.50;97.30;;;;;;4958416;28;20437;-85
2024/03/19 06:59:09;;;;;;;3.23;1.97;;;1.70;97.30;;;;;;4959066;28;20198;-85
2024/03/19 07:01:36;;;;;;;2.43;2.23;;;1.70;97.30;;;;;;4975882;28;20339;-85
2024/03/19 07:04:02;;;;;;;2.23;1.53;;;1.90;97.30;;;;;;4956731;28;20449;-85
2024/03/19 07:06:29;;;;;;;2.53;2.33;;;2.00;97.30;;;;;;4965584;28;20458;-86
2024/03/19 07:08:55;;;;;;;1.90;1.73;;;2.20;97.30;;;;;;4958016;28;20422;-83
2024/03/19 07:11:21;;;;;;;3.23;2.33;;;2.30;97.30;;;;;;4956934;28;20858;-86
2024/03/19 07:13:47;;;;;;;2.20;2.00;;;2.50;97.30;;;;;;4957030;28;20429;-87
2024/03/19 07:16:12;;;;;;;4.93;2.43;;;2.70;97.30;;;;;;4956744;28;20963;-87
2024/03/19 07:18:38;;;;;;;2.50;2.30;;;2.90;97.30;;;;;;4957370;28;20201;-86
2024/03/19 07:21:03;;;;;;;4.00;3.00;;;3.10;97.30;;;;;;4956899;28;20253;-85
2024/03/19 07:23:29;;;;;;;1.80;1.70;;;3.30;97.30;;;;;;4957395;28;20194;-87
2024/03/19 07:25:55;;;;;;;1.80;1.70;;;3.40;97.30;;;;;;4958013;28;20202;-87
2024/03/19 07:28:20;;;;;;;2.33;2.07;;;3.60;97.30;;;;;;4956998;28;20197;-86
2024/03/19 07:30:46;;;;;;;3.47;2.20;;;3.70;97.30;;;;;;4956584;28;20532;-87
2024/03/19 07:33:11;;;;;;;3.27;3.07;;;3.90;97.30;;;;;;4957361;28;20186;-86
2024/03/19 07:35:37;;;;;;;2.33;2.00;;;4.00;97.30;;;;;;4957272;28;20191;-89
2024/03/19 07:38:05;;;;;;;1.50;1.40;;;4.10;97.30;;;;;;4958198;28;20190;-86
2024/03/19 07:40:31;;;;;;;1.57;1.47;;;4.30;97.30;;;;;;4958691;28;20698;-86
2024/03/19 07:42:57;;;;;;;8.83;2.97;;;4.30;97.30;;;;;;4966118;28;20436;-85
2024/03/19 07:45:22;;;;;;;2.03;1.63;;;4.40;97.30;;;;;;4962322;28;20175;-89
2024/03/19 07:47:50;;;;;;;1.80;1.70;;;4.60;97.30;;;;;;4975311;28;20210;-88
2024/03/19 07:50:22;;;;;;;2.93;2.40;;;4.60;97.30;;;;;;4975305;28;20238;-87
2024/03/19 07:52:48;;;;;;;2.30;2.10;;;4.50;97.30;;;;;;4968253;28;20433;-86
2024/03/19 07:55:14;;;;;;;2.13;1.97;;;4.40;97.30;;;;;;4957139;28;20516;-86
2024/03/19 07:57:40;;;;;;;2.20;2.03;;;4.40;97.30;;;;;;4950014;28;20529;-88
2024/03/19 08:00:09;;;;;;;2.37;2.17;;;4.40;97.30;;;;;;4956609;28;20287;-87
2024/03/19 08:02:38;;;;;;;8.63;2.20;;;4.50;97.30;;;;;;4948866;28;20650;-87
2024/03/19 08:05:05;;;;;;;1.63;1.53;;;4.60;97.30;;;;;;4956704;28;20437;-87
2024/03/19 08:07:32;;;;;;;3.63;3.13;;;4.70;97.30;;;;;;4956424;28;20425;-86
2024/03/19 08:09:58;;;;;;;1.67;1.57;;;4.90;97.30;;;;;;4941175;28;20859;-86
2024/03/19 08:12:25;;;;;;;4.30;2.13;;;5.00;97.00;;;;;;4948791;28;20437;-87
2024/03/19 08:14:51;;;;;;;2.83;2.40;;;5.10;96.90;;;;;;4957018;28;20564;-87
2024/03/19 08:17:18;;;;;;;5.60;3.17;;;5.20;96.70;;;;;;4952678;28;20425;-87
2024/03/19 08:19:43;;;;;;;1.80;1.70;;;5.40;96.60;;;;;;4954683;28;20462;-89
2024/03/19 08:22:09;;;;;;;2.40;1.87;;;5.50;97.20;;;;;;4950272;28;20462;-86
2024/03/19 08:24:34;;;;;;;1.70;1.60;;;5.60;96.70;;;;;;4952388;28;20667;-87
2024/03/19 08:27:00;;;;;;;1.90;1.80;;;5.70;96.90;;;;;;4952588;28;20238;-84
2024/03/19 08:29:26;;;;;;;2.30;2.00;;;5.90;96.60;;;;;;4960776;28;20581;-86
2024/03/19 08:31:51;;;;;;;1.53;1.40;;;6.00;95.60;;;;;;4970534;23;20599;-64
2024/03/19 08:34:17;;;;;;;1.37;1.27;;;6.10;94.40;;;;;;4964036;28;20229;-64
2024/03/19 08:36:43;;;;;;;2.30;2.10;;;6.20;93.30;;;;;;4971400;28;20185;-63
2024/03/19 08:39:09;;;;;;;2.67;2.30;;;6.40;94.00;;;;;;4972322;28;20544;-64
2024/03/19 08:41:34;;;;;;;9.80;3.00;;;6.40;92.70;;;;;;4966809;28;20236;-63
2024/03/19 08:44:00;;;;;;;1.67;1.57;;;6.50;93.50;;;;;;4960891;28;20210;-64
2024/03/19 08:46:26;;;;;;;4.40;1.40;;;6.70;93.20;;;;;;4953559;28;20183;-64
2024/03/19 08:48:51;;;;;;;2.23;2.03;;;6.80;92.90;;;;;;4953151;28;20659;-64
2024/03/19 08:51:17;;;;;;;1.53;1.43;;;6.90;91.80;;;;;;4952208;28;20203;-63
2024/03/19 08:53:42;;;;;;;4.40;2.60;;;7.10;92.90;;;;;;4952603;28;20227;-63
2024/03/19 08:56:08;;;;;;;3.60;3.23;;;7.20;93.00;;;;;;4949513;28;20219;-63
2024/03/19 08:58:35;;;;;;;2.50;2.30;;;7.30;92.90;;;;;;4952804;28;20736;-63
2024/03/19 09:01:01;;;;;;;2.03;1.90;;;7.20;93.90;;;;;;4942438;28;20503;-63
2024/03/19 09:03:26;;;;;;;2.73;2.17;;;7.20;94.90;;;;;;4944199;28;20513;-63
2024/03/19 09:06:00;;;;;;;1.40;1.30;;;7.20;94.50;;;;;;4965798;28;20186;-63
2024/03/19 09:08:26;;;;;;;1.37;1.27;;;7.20;94.50;;;;;;4952416;28;20210;-63
2024/03/19 09:10:53;;;;;;;2.30;2.10;;;7.20;93.80;;;;;;4959763;28;20446;-63
2024/03/19 09:13:19;;;;;;;3.57;2.20;;;7.20;93.60;;;;;;4951255;28;20791;-63
2024/03/19 09:15:44;;;;;;;4.20;2.87;;;7.30;94.20;;;;;;4950840;28;20435;-63
2024/03/19 09:18:10;;;;;;;3.53;2.00;;;7.20;93.20;;;;;;4959283;28;20451;-63
2024/03/19 09:20:35;;;;;;;1.90;1.70;;;7.20;93.80;;;;;;4950056;28;20206;-63
2024/03/19 09:23:01;;;;;;;5.50;2.20;;;7.50;93.90;;;;;;4959575;28;20180;-62
2024/03/19 09:25:27;;;;;;;3.43;2.83;;;7.60;93.20;;;;;;4950946;28;20183;-63
2024/03/19 09:27:52;;;;;;;2.73;2.53;;;7.60;92.60;;;;;;4950610;28;20199;-63
2024/03/19 09:30:18;;;;;;;2.83;1.87;;;7.70;93.10;;;;;;4958354;28;20179;-62
2024/03/19 09:32:43;;;;;;;1.20;1.10;;;7.80;92.70;;;;;;4970109;28;20575;-63
2024/03/19 09:35:09;;;;;;;23.40;2.43;;;7.90;92.40;;;;;;4970247;28;20278;-63
2024/03/19 09:37:36;;;;;;;2.23;2.07;;;7.90;91.40;;;;;;4959456;28;20190;-63
2024/03/19 09:40:01;;;;;;;1.77;1.67;;;7.90;91.80;;;;;;4977679;28;20203;-63
2024/03/19 09:42:27;;;;;;;2.50;2.37;;;8.10;92.80;;;;;;4963508;28;20496;-63
2024/03/19 09:44:53;;;;;;;2.40;1.80;;;8.30;91.60;;;;;;4953384;28;20225;-63
2024/03/19 09:47:20;;;;;;;5.47;1.50;;;8.40;90.80;;;;;;4952556;28;20175;-63
2024/03/19 09:49:46;;;;;;;2.03;1.60;;;8.40;90.20;;;;;;4959632;28;20433;-63
2024/03/19 09:52:13;;;;;;;1.53;1.43;;;8.40;90.70;;;;;;4955633;28;20461;-63
2024/03/19 09:54:40;;;;;;;4.80;2.63;;;8.50;91.30;;;;;;4953833;28;20260;-63
2024/03/19 09:57:13;;;;;;;3.23;1.50;;;8.70;91.80;;;;;;4970258;28;20430;-63
2024/03/19 09:59:39;;;;;;;2.67;2.50;;;8.90;87.80;;;;;;4946943;28;21072;-63
2024/03/19 10:02:20;;;;;;;9.67;3.03;;;9.00;88.70;;;;;;4970106;28;20437;-63
2024/03/19 10:04:47;;;;;;;4.60;2.37;;;9.20;87.30;;;;;;4948983;28;20619;-63
2024/03/19 10:07:14;;;;;;;1.73;1.60;;;9.30;86.00;;;;;;4952393;28;20430;-63
2024/03/19 10:09:43;;;;;;;3.03;1.60;;;9.40;85.50;;;;;;4969335;28;20502;-63
2024/03/19 10:12:08;;;;;;;1.83;1.33;;;9.40;84.60;;;;;;4971612;28;20430;-63
2024/03/19 10:14:34;;;;;;;3.03;1.83;;;9.50;84.80;;;;;;4951358;28;20800;-63
2024/03/19 10:16:59;;;;;;;4.97;1.53;;;9.60;84.10;;;;;;4960883;28;20670;-63
2024/03/19 10:19:25;;;;;;;2.07;1.93;;;9.80;84.20;;;;;;4969777;28;20242;-63
2024/03/19 10:21:50;;;;;;;3.60;2.60;;;9.90;83.40;;;;;;4967793;28;20201;-63
2024/03/19 10:24:16;;;;;;;2.07;1.93;;;10.00;83.40;;;;;;4968158;28;20220;-63
2024/03/19 10:26:43;;;;;;;2.80;2.60;;;10.10;82.80;;;;;;4965036;28;20188;-62
2024/03/19 10:29:14;;;;;;;1.33;1.33;;;10.10;81.80;;;;;;4948885;28;20188;-63
2024/03/19 10:31:41;;;;;;;2.57;2.37;;;10.10;81.70;;;;;;4975208;28;20527;-63
2024/03/19 10:34:19;;;;;;;3.33;2.20;;;10.20;82.70;;;;;;4969618;28;20460;-63
2024/03/19 10:36:50;;;;;;;2.07;1.93;;;10.40;83.40;;;;;;4948320;28;20430;-62
2024/03/19 10:39:16;;;;;;;1.70;1.67;;;10.60;82.60;;;;;;4969018;28;20465;-63
2024/03/19 10:41:43;;;;;;;2.43;2.03;;;10.60;82.40;;;;;;4951714;28;20897;-63
2024/03/19 10:44:18;;;;;;;2.60;2.20;;;10.70;80.10;;;;;;4975859;28;20476;-63
2024/03/19 10:46:45;;;;;;;1.20;1.20;;;10.70;80.30;;;;;;4962504;28;20440;-65
2024/03/19 10:49:21;;;;;;;1.83;1.73;;;10.70;80.70;;;;;;4968934;28;20425;-65
2024/03/19 10:51:57;;;;;;;2.53;2.33;;;10.70;77.50;;;;;;4952988;28;20841;-65
2024/03/19 10:54:24;;;;;;;2.73;2.30;;;10.60;79.00;;;;;;4950035;28;20484;-65
2024/03/19 10:56:50;;;;;;;2.60;1.70;;;10.70;78.80;;;;;;4968574;28;20993;-65
2024/03/19 10:59:16;;;;;;;1.93;1.80;;;11.00;80.50;;;;;;4966574;28;20465;-66
2024/03/19 11:01:52;;;;;;;2.60;1.63;;;11.00;77.00;;;;;;4968520;28;20266;-65
2024/03/19 11:04:28;;;;;;;4.30;1.90;;;10.90;78.10;;;;;;4966169;28;20519;-65
2024/03/19 11:06:55;;;;;;;1.83;1.37;;;11.00;78.90;;;;;;4964422;28;20512;-65
2024/03/19 11:09:22;;;;;;;1.40;1.30;;;11.10;77.40;;;;;;4951267;28;20461;-65
2024/03/19 11:11:52;;;;;;;1.40;1.30;;;11.30;79.00;;;;;;4963279;28;20450;-64
2024/03/19 11:14:19;;;;;;;2.13;1.97;;;11.50;78.10;;;;;;4968300;28;20421;-65
2024/03/19 11:16:45;;;;;;;1.53;1.30;;;11.60;78.10;;;;;;4966892;28;20992;-65
2024/03/19 11:19:44;;;;;;;1.60;1.50;;;11.60;76.80;;;;;;4976245;28;20504;-62
2024/03/19 11:22:09;;;;;;;1.87;1.60;;;11.60;76.50;;;;;;4954295;28;21012;-62
2024/03/19 11:24:40;;;;;;;1.80;1.70;;;11.40;77.00;;;;;;4972772;28;20425;-62
2024/03/19 11:27:06;;;;;;;1.57;1.43;;;11.50;77.70;;;;;;4968672;28;20194;-63
2024/03/19 11:29:37;;;;;;;1.50;1.50;;;11.70;76.10;;;;;;4952898;28;20440;-62
2024/03/19 11:32:03;;;;;;;3.00;2.17;;;11.90;71.80;;;;;;4953557;28;20236;-63
2024/03/19 11:34:29;;;;;;;1.97;1.87;;;12.10;72.10;;;;;;4967570;28;20449;-63
2024/03/19 11:36:55;;;;;;;5.37;2.20;;;12.30;73.20;;;;;;4969004;28;20430;-62
2024/03/19 11:39:22;;;;;;;1.87;1.77;;;12.50;73.40;;;;;;4949669;28;20249;-63
2024/03/19 11:41:48;;;;;;;3.00;2.53;;;12.60;75.20;;;;;;4974579;28;20460;-62
2024/03/19 11:44:15;;;;;;;1.83;1.43;;;12.90;74.20;;;;;;4954504;28;20430;-63
2024/03/19 11:46:42;;;;;;;1.37;1.33;;;13.10;72.80;;;;;;4947142;28;20871;-63
2024/03/19 11:49:23;;;;;;;1.73;1.40;;;13.10;73.80;;;;;;4969184;28;20426;-62
2024/03/19 11:52:04;;;;;;;1.87;1.77;;;13.20;72.30;;;;;;4944558;28;20532;-62
2024/03/19 11:54:36;;;;;;;3.83;2.30;;;13.10;73.20;;;;;;4971712;28;20415;-63
2024/03/19 11:57:02;;;;;;;1.40;1.30;;;13.10;72.80;;;;;;4951562;28;20456;-62
2024/03/19 11:59:30;;;;;;;1.23;1.20;;;13.20;73.60;;;;;;4965955;28;20520;-62
2024/03/19 12:01:59;;;;;;;1.53;1.40;;;13.40;73.90;;;;;;4976680;28;20829;-63
2024/03/19 12:04:26;;;;;;;5.93;1.87;;;13.60;73.10;;;;;;4971768;28;20423;-62
2024/03/19 12:09:22;;;;;;;3.33;1.73;;;14.00;74.70;;;;;;4963552;28;20737;-84
2024/03/19 12:11:49;;;;;;;2.30;2.10;;;14.10;76.50;;;;;;4971559;28;20430;-84
2024/03/19 12:14:16;;;;;;;1.63;1.53;;;14.20;72.70;;;;;;4948469;28;20764;-84
2024/03/19 12:16:42;;;;;;;3.40;2.87;;;14.30;71.60;;;;;;4951006;29;20438;-83
2024/03/19 12:19:12;;;;;;;1.77;1.43;;;14.10;73.00;;;;;;4963434;28;20464;-82
2024/03/19 12:21:42;;;;;;;1.87;1.77;;;14.30;73.30;;;;;;4948491;28;20437;-85
2024/03/19 12:24:16;;;;;;;4.43;2.47;;;14.40;74.00;;;;;;4942634;28;20430;-84
2024/03/19 12:26:43;;;;;;;1.93;1.83;;;14.60;73.20;;;;;;4954723;28;20429;-84
2024/03/19 12:29:23;;;;;;;3.60;1.63;;;15.00;70.10;;;;;;4948374;28;20442;-85
2024/03/19 12:32:02;;;;;;;1.37;1.33;;;14.80;68.60;;;;;;4966093;28;20480;-86
2024/03/19 12:34:38;;;;;;;2.70;1.67;;;14.80;67.60;;;;;;4941096;28;20429;-84
2024/03/19 12:37:11;;;;;;;6.50;3.03;;;14.90;66.10;;;;;;4948661;28;20825;-85
2024/03/19 12:39:37;;;;;;;1.13;1.10;;;15.10;69.80;;;;;;4960610;28;20464;-82
2024/03/19 12:42:07;;;;;;;5.40;1.77;;;15.20;71.00;;;;;;4948714;28;20941;-84
2024/03/19 12:44:33;;;;;;;1.43;1.10;;;15.30;69.70;;;;;;4965978;28;20718;-85
2024/03/19 12:46:58;;;;;;;4.10;1.77;;;15.30;69.50;;;;;;4953421;28;20441;-82
2024/03/19 12:49:25;;;;;;;1.20;1.10;;;15.40;69.60;;;;;;4940687;28;20187;-81
2024/03/19 12:51:51;;;;;;;2.50;2.20;;;15.40;70.50;;;;;;4967902;28;20283;-82
2024/03/19 12:54:17;;;;;;;3.83;2.40;;;15.40;70.40;;;;;;4965065;28;20669;-82
2024/03/19 12:56:42;;;;;;;2.97;2.50;;;15.50;69.70;;;;;;4943055;28;20434;-85
2024/03/19 12:59:09;;;;;;;1.20;1.10;;;15.50;70.80;;;;;;4942633;28;20199;-85
2024/03/19 13:01:34;;;;;;;4.10;1.87;;;15.60;69.40;;;;;;4951759;28;20182;-82
2024/03/19 13:04:00;;;;;;;1.93;1.87;;;15.60;69.70;;;;;;4965962;28;20432;-83
2024/03/19 13:06:25;;;;;;;2.80;2.40;;;15.70;70.50;;;;;;4960539;28;20629;-84
2024/03/19 13:08:51;;;;;;;4.50;2.50;;;15.90;69.00;;;;;;4960610;28;20230;-83
2024/03/19 13:11:16;;;;;;;3.77;2.00;;;16.00;69.40;;;;;;4960798;28;20182;-84
2024/03/19 13:13:42;;;;;;;1.70;1.60;;;16.00;69.00;;;;;;4946656;28;20174;-83
2024/03/19 13:16:07;;;;;;;4.10;2.03;;;16.20;68.30;;;;;;4954186;28;20237;-84
2024/03/19 13:18:33;;;;;;;2.20;2.07;;;16.10;67.90;;;;;;4952676;28;20212;-85
2024/03/19 13:20:59;;;;;;;2.30;2.17;;;16.00;68.00;;;;;;4966210;28;20183;-83
2024/03/19 13:23:24;;;;;;;3.23;2.37;;;16.00;67.60;;;;;;4950916;28;20175;-84
2024/03/19 13:25:50;;;;;;;2.93;2.40;;;16.00;67.90;;;;;;4947332;28;20171;-83
2024/03/19 13:28:16;;;;;;;1.57;1.50;;;15.80;68.10;;;;;;4946624;28;20286;-83
2024/03/19 13:30:41;;;;;;;2.20;1.83;;;15.70;69.50;;;;;;4946292;28;20191;-85
2024/03/19 13:33:07;;;;;;;1.50;1.40;;;15.90;68.20;;;;;;4954110;28;20178;-84
2024/03/19 13:35:32;;;;;;;2.90;1.70;;;15.90;67.80;;;;;;4950085;28;20225;-85
2024/03/19 13:37:58;;;;;;;5.97;2.80;;;15.90;68.20;;;;;;4965401;28;20553;-82
2024/03/19 13:40:24;;;;;;;1.60;1.50;;;15.90;68.40;;;;;;4951424;28;20706;-83
2024/03/19 13:42:49;;;;;;;1.93;1.40;;;15.90;68.60;;;;;;4958711;28;20187;-84
2024/03/19 13:45:15;;;;;;;1.80;1.70;;;16.00;69.50;;;;;;4961543;28;20589;-85
2024/03/19 13:47:41;;;;;;;4.80;3.10;;;16.20;68.30;;;;;;4948697;28;20206;-85
2024/03/19 13:50:09;;;;;;;3.37;2.47;;;16.50;68.50;;;;;;4947899;28;20436;-85
2024/03/19 13:52:34;;;;;;;3.13;1.70;;;16.60;67.70;;;;;;4962724;28;20238;-85
2024/03/19 13:55:00;;;;;;;3.03;1.67;;;16.20;67.50;;;;;;4948135;28;20808;-85
2024/03/19 13:57:26;;;;;;;2.23;1.90;;;16.40;69.30;;;;;;4955090;28;20222;-84
2024/03/19 13:59:52;;;;;;;4.07;2.00;;;16.60;69.60;;;;;;4949697;28;20813;-84
2024/03/19 14:02:19;;;;;;;5.17;3.00;;;16.70;68.40;;;;;;4945255;28;20800;-82
2024/03/19 14:04:45;;;;;;;4.27;1.97;;;16.70;68.10;;;;;;4943191;28;20719;-82
2024/03/19 14:07:12;;;;;;;5.70;2.30;;;16.60;68.60;;;;;;4966242;28;20439;-82
2024/03/19 14:09:39;;;;;;;3.50;1.53;;;16.50;68.00;;;;;;4963688;28;20441;-85
2024/03/19 14:12:06;;;;;;;3.33;1.87;;;16.40;67.80;;;;;;4951499;28;20512;-83
2024/03/19 14:14:33;;;;;;;3.07;2.87;;;16.10;68.90;;;;;;4950827;28;20456;-84
2024/03/19 14:16:59;;;;;;;1.50;1.40;;;16.00;68.80;;;;;;4951837;28;20493;-84
2024/03/19 14:19:25;;;;;;;3.37;2.20;;;15.80;69.20;;;;;;4955106;28;20512;-84
2024/03/19 14:21:50;;;;;;;2.63;2.43;;;15.50;70.10;;;;;;4951258;28;20901;-85
2024/03/19 14:24:16;;;;;;;2.53;2.33;;;15.30;70.50;;;;;;4948814;28;20183;-84
2024/03/19 14:26:41;;;;;;;1.93;1.67;;;15.20;69.40;;;;;;4945895;28;20370;-84
2024/03/19 14:29:07;;;;;;;5.17;3.20;;;15.20;70.70;;;;;;4955395;28;20564;-85
2024/03/19 14:31:33;;;;;;;5.33;2.27;;;15.40;70.50;;;;;;4949680;28;20182;-82
2024/03/19 14:33:58;;;;;;;2.07;1.93;;;15.50;69.80;;;;;;4951826;28;20183;-84
2024/03/19 14:36:24;;;;;;;2.33;1.63;;;15.50;70.10;;;;;;4955607;28;20209;-85
2024/03/19 14:38:49;;;;;;;4.93;2.30;;;15.50;69.20;;;;;;4951504;28;20222;-83
2024/03/19 14:41:15;;;;;;;4.80;3.87;;;15.70;69.90;;;;;;4950929;28;20211;-84
2024/03/19 14:43:42;;;;;;;2.43;2.23;;;16.10;69.00;;;;;;4967318;28;20262;-83
2024/03/19 14:46:09;;;;;;;1.70;1.60;;;16.30;68.50;;;;;;4948617;28;20629;-84
2024/03/19 14:48:34;;;;;;;4.20;1.80;;;16.40;67.60;;;;;;4949650;28;20982;-84
2024/03/19 14:51:00;;;;;;;1.57;1.47;;;16.30;67.90;;;;;;4952023;28;20429;-83
2024/03/19 14:53:25;;;;;;;2.70;2.47;;;16.30;67.40;;;;;;4963785;28;20630;-85
2024/03/19 14:55:51;;;;;;;1.77;1.47;;;16.30;67.20;;;;;;4955318;28;20473;-85
2024/03/19 14:58:16;;;;;;;2.70;1.97;;;15.90;68.40;;;;;;4950566;28;20260;-84
2024/03/19 15:00:42;;;;;;;1.90;1.80;;;15.90;68.10;;;;;;4957064;28;20179;-85
2024/03/19 15:03:13;;;;;;;3.50;2.37;;;15.80;68.60;;;;;;4958551;28;20202;-83
2024/03/19 15:05:39;;;;;;;3.33;2.10;;;15.70;69.00;;;;;;4951044;28;20407;-83
2024/03/19 15:08:05;;;;;;;2.17;2.00;;;15.90;67.60;;;;;;4950856;28;20995;-84
2024/03/19 15:10:32;;;;;;;2.27;2.00;;;15.90;67.60;;;;;;4951037;28;20273;-83
2024/03/19 15:12:59;;;;;;;3.40;1.50;;;16.20;67.60;;;;;;4949519;28;20431;-83
2024/03/19 15:15:26;;;;;;;4.40;2.80;;;16.00;67.40;;;;;;4955286;28;20430;-81
2024/03/19 15:17:52;;;;;;;3.10;2.50;;;15.60;67.80;;;;;;4970267;28;20443;-83
2024/03/19 15:20:18;;;;;;;1.67;1.63;;;15.00;68.70;;;;;;4962762;28;20490;-84
2024/03/19 15:22:44;;;;;;;2.10;1.80;;;14.80;69.30;;;;;;4951347;28;20179;-83
2024/03/19 15:25:14;;;;;;;5.80;2.67;;;14.50;69.00;;;;;;4946098;28;20434;-83
2024/03/19 15:27:40;;;;;;;5.37;3.23;;;14.30;69.60;;;;;;4963700;28;20202;-83
2024/03/19 15:30:06;;;;;;;2.00;1.90;;;14.20;70.00;;;;;;4950382;28;20498;-84
2024/03/19 15:32:32;;;;;;;2.30;1.60;;;14.10;69.70;;;;;;4955247;28;20442;-83
2024/03/19 15:34:57;;;;;;;16.33;1.90;;;14.10;69.90;;;;;;4968861;28;20848;-85
2024/03/19 15:37:24;;;;;;;2.90;2.20;;;14.20;70.00;;;;;;4951070;28;20209;-83
2024/03/19 15:39:50;;;;;;;2.30;2.10;;;14.10;70.10;;;;;;4951463;28;20655;-83
2024/03/19 15:42:15;;;;;;;1.73;1.63;;;14.20;70.40;;;;;;4951354;28;20512;-83
2024/03/19 15:44:41;;;;;;;2.60;2.07;;;14.50;69.80;;;;;;4946218;28;20190;-83
2024/03/19 15:47:06;;;;;;;2.40;1.97;;;14.70;69.30;;;;;;4944124;28;20237;-82
2024/03/19 15:49:32;;;;;;;2.63;1.80;;;14.70;68.60;;;;;;4942403;28;20190;-83
2024/03/19 15:51:57;;;;;;;1.40;1.37;;;14.60;69.00;;;;;;4949508;28;20178;-84
2024/03/19 15:54:23;;;;;;;3.67;2.60;;;14.60;69.20;;;;;;4954574;28;20197;-83
2024/03/19 15:56:48;;;;;;;4.67;2.80;;;14.50;69.40;;;;;;4947134;28;20232;-83
2024/03/19 15:59:14;;;;;;;3.03;1.80;;;14.30;69.40;;;;;;4946707;28;20198;-83
2024/03/19 16:01:39;;;;;;;1.30;1.20;;;14.30;69.90;;;;;;4951112;28;20182;-83
2024/03/19 16:04:05;;;;;;;1.10;1.00;;;14.20;69.70;;;;;;4948814;28;20183;-83
2024/03/19 16:06:30;;;;;;;1.63;1.60;;;13.90;69.40;;;;;;4946996;28;20249;-83
2024/03/19 16:08:57;;;;;;;2.77;2.57;;;13.90;69.60;;;;;;4946791;28;20262;-84
2024/03/19 16:11:22;;;;;;;1.40;1.30;;;14.00;70.30;;;;;;4949076;28;20240;-83
2024/03/19 16:13:49;;;;;;;4.00;2.27;;;13.90;70.50;;;;;;4946940;28;20866;-84
2024/03/19 16:16:14;;;;;;;6.80;2.93;;;13.70;71.20;;;;;;4964612;28;20203;-83
2024/03/19 16:18:40;;;;;;;2.60;2.23;;;13.60;70.90;;;;;;4947229;28;20752;-84
2024/03/19 16:21:08;;;;;;;4.20;2.03;;;13.40;71.70;;;;;;4950167;28;20202;-83
2024/03/19 16:23:33;;;;;;;3.17;2.07;;;13.10;71.70;;;;;;4952094;28;20179;-83
2024/03/19 16:25:59;;;;;;;3.37;2.00;;;13.00;71.80;;;;;;4948449;28;20421;-83
2024/03/19 16:28:24;;;;;;;3.27;2.43;;;12.90;72.00;;;;;;4951848;28;20713;-83
2024/03/19 16:30:52;;;;;;;4.67;2.57;;;12.70;72.00;;;;;;4947388;28;20238;-84
2024/03/19 16:33:17;;;;;;;2.60;2.40;;;12.60;72.30;;;;;;4950608;28;20182;-83
2024/03/19 16:35:43;;;;;;;2.47;2.27;;;12.50;72.90;;;;;;4950064;28;20422;-83
2024/03/19 16:38:08;;;;;;;4.80;2.47;;;12.30;73.20;;;;;;4950133;28;20199;-84
2024/03/19 16:40:35;;;;;;;3.33;2.03;;;12.30;73.10;;;;;;4955503;28;20313;-83
2024/03/19 16:43:01;;;;;;;2.00;1.73;;;12.20;73.40;;;;;;4955458;28;20229;-83
2024/03/19 16:45:27;;;;;;;4.17;2.33;;;12.20;73.60;;;;;;4957672;28;20417;-82
2024/03/19 16:47:53;;;;;;;3.37;2.20;;;12.20;73.20;;;;;;4954011;28;20315;-84
2024/03/19 16:50:18;;;;;;;14.43;2.17;;;12.20;73.20;;;;;;4959040;28;20490;-84
2024/03/19 16:52:44;;;;;;;3.57;2.13;;;12.20;72.80;;;;;;4950973;28;20187;-84
2024/03/19 16:55:09;;;;;;;3.47;2.63;;;12.40;72.80;;;;;;4969875;28;20182;-84
2024/03/19 16:57:35;;;;;;;4.40;3.23;;;12.60;71.90;;;;;;4958418;28;20217;-84
2024/03/19 17:00:00;;;;;;;2.70;1.53;;;12.60;71.50;;;;;;4955512;28;20257;-84
2024/03/19 17:02:27;;;;;;;2.40;1.40;;;12.20;71.10;;;;;;4954691;28;20246;-83
2024/03/19 17:04:53;;;;;;;1.60;1.50;;;12.00;71.40;;;;;;4968628;28;20174;-82
2024/03/19 17:07:18;;;;;;;1.40;1.30;;;11.80;71.60;;;;;;4969203;28;21015;-83
2024/03/19 17:09:44;;;;;;;1.53;1.23;;;11.60;71.60;;;;;;4951680;28;20178;-83
2024/03/19 17:12:10;;;;;;;3.17;2.93;;;11.40;71.90;;;;;;4955136;28;20190;-83
2024/03/19 17:14:35;;;;;;;1.30;1.07;;;11.30;72.60;;;;;;4955297;28;20632;-83
2024/03/19 17:17:01;;;;;;;1.53;1.43;;;11.10;72.90;;;;;;4951647;28;20179;-85
2024/03/19 17:19:26;;;;;;;1.00;0.90;;;11.10;72.90;;;;;;4974916;28;20257;-84
2024/03/19 17:21:52;;;;;;;1.97;1.60;;;11.00;73.50;;;;;;4951006;28;20624;-82
2024/03/19 17:24:17;;;;;;;3.23;2.33;;;10.80;74.20;;;;;;4968167;28;20264;-85
2024/03/19 17:26:43;;;;;;;5.43;2.60;;;10.80;74.40;;;;;;4977740;28;20193;-84
2024/03/19 17:29:10;;;;;;;1.40;1.30;;;10.70;75.20;;;;;;4989119;28;20213;-84
2024/03/19 17:31:36;;;;;;;2.50;1.30;;;10.60;75.60;;;;;;4967659;28;20252;-85
2024/03/19 17:34:02;;;;;;;1.47;1.37;;;10.60;75.80;;;;;;4968347;28;20500;-84
2024/03/19 17:36:27;;;;;;;2.73;1.67;;;10.50;75.90;;;;;;4964134;28;20427;-84
2024/03/19 17:38:53;;;;;;;1.73;1.30;;;10.40;76.20;;;;;;4967028;28;20210;-84
2024/03/19 17:41:18;;;;;;;3.20;2.60;;;10.40;77.00;;;;;;4986191;28;20186;-86
2024/03/19 17:43:44;;;;;;;3.20;2.50;;;10.40;77.50;;;;;;4965655;28;20205;-84
2024/03/19 17:46:10;;;;;;;3.07;1.47;;;10.30;77.60;;;;;;4943528;28;20187;-84
2024/03/19 17:48:35;;;;;;;1.90;1.70;;;10.20;77.30;;;;;;4950306;28;20203;-84
2024/03/19 17:51:01;;;;;;;1.47;1.37;;;10.20;77.30;;;;;;4949224;28;20418;-84